sensor_id;sensor_type;location;lat;lon;timestamp;P1;durP1;ratioP1;P2;durP2;ratioP2
44750;SDS011;30477;48.224;11.470;2023-12-20T00:00:34;4.18;;;3.20;;
44750;SDS011;30477;48.224;11.470;2023-12-20T00:03:02;4.45;;;3.30;;
44750;SDS011;30477;48.224;11.470;2023-12-20T00:05:28;3.73;;;2.90;;
44750;SDS011;30477;48.224;11.470;2023-12-20T00:07:53;4.00;;;3.17;;
44750;SDS011;30477;48.224;11.470;2023-12-20T00:10:18;3.80;;;3.07;;
44750;SDS011;30477;48.224;11.470;2023-12-20T00:12:43;4.00;;;3.10;;
44750;SDS011;30477;48.224;11.470;2023-12-20T00:15:09;4.33;;;3.07;;
44750;SDS011;30477;48.224;11.470;2023-12-20T00:17:34;3.90;;;3.33;;
44750;SDS011;30477;48.224;11.470;2023-12-20T00:20:00;4.60;;;3.50;;
44750;SDS011;30477;48.224;11.470;2023-12-20T00:22:25;4.90;;;3.53;;
44750;SDS011;30477;48.224;11.470;2023-12-20T00:24:50;4.50;;;3.80;;
44750;SDS011;30477;48.224;11.470;2023-12-20T00:27:16;4.97;;;3.40;;
44750;SDS011;30477;48.224;11.470;2023-12-20T00:29:41;4.57;;;3.60;;
44750;SDS011;30477;48.224;11.470;2023-12-20T00:32:08;7.35;;;3.70;;
44750;SDS011;30477;48.224;11.470;2023-12-20T00:34:33;6.03;;;3.83;;
44750;SDS011;30477;48.224;11.470;2023-12-20T00:36:58;5.10;;;4.03;;
44750;SDS011;30477;48.224;11.470;2023-12-20T00:39:24;10.23;;;6.07;;
44750;SDS011;30477;48.224;11.470;2023-12-20T00:41:49;7.03;;;3.80;;
44750;SDS011;30477;48.224;11.470;2023-12-20T00:44:14;4.87;;;3.90;;
44750;SDS011;30477;48.224;11.470;2023-12-20T00:46:40;4.47;;;3.23;;
44750;SDS011;30477;48.224;11.470;2023-12-20T00:49:05;5.83;;;3.57;;
44750;SDS011;30477;48.224;11.470;2023-12-20T00:51:31;4.57;;;3.50;;
44750;SDS011;30477;48.224;11.470;2023-12-20T00:53:56;5.10;;;3.83;;
44750;SDS011;30477;48.224;11.470;2023-12-20T00:56:21;5.90;;;4.57;;
44750;SDS011;30477;48.224;11.470;2023-12-20T00:58:47;4.73;;;3.73;;
44750;SDS011;30477;48.224;11.470;2023-12-20T01:01:12;5.70;;;3.97;;
44750;SDS011;30477;48.224;11.470;2023-12-20T01:03:38;4.53;;;3.40;;
44750;SDS011;30477;48.224;11.470;2023-12-20T01:06:03;4.35;;;3.47;;
44750;SDS011;30477;48.224;11.470;2023-12-20T01:10:55;4.30;;;2.90;;
44750;SDS011;30477;48.224;11.470;2023-12-20T01:13:21;3.80;;;2.97;;
44750;SDS011;30477;48.224;11.470;2023-12-20T01:15:46;4.13;;;2.80;;
44750;SDS011;30477;48.224;11.470;2023-12-20T01:18:12;3.63;;;2.85;;
44750;SDS011;30477;48.224;11.470;2023-12-20T01:20:38;4.22;;;3.08;;
44750;SDS011;30477;48.224;11.470;2023-12-20T01:23:03;3.23;;;2.93;;
44750;SDS011;30477;48.224;11.470;2023-12-20T01:25:28;5.40;;;3.13;;
44750;SDS011;30477;48.224;11.470;2023-12-20T01:27:54;3.83;;;3.37;;
44750;SDS011;30477;48.224;11.470;2023-12-20T01:30:19;5.57;;;3.53;;
44750;SDS011;30477;48.224;11.470;2023-12-20T01:32:44;4.20;;;3.40;;
44750;SDS011;30477;48.224;11.470;2023-12-20T01:35:10;4.80;;;2.63;;
44750;SDS011;30477;48.224;11.470;2023-12-20T01:37:37;4.60;;;2.70;;
44750;SDS011;30477;48.224;11.470;2023-12-20T01:40:02;4.67;;;2.40;;
44750;SDS011;30477;48.224;11.470;2023-12-20T01:42:28;3.67;;;2.75;;
44750;SDS011;30477;48.224;11.470;2023-12-20T01:44:54;4.20;;;2.42;;
44750;SDS011;30477;48.224;11.470;2023-12-20T01:47:19;3.20;;;2.20;;
44750;SDS011;30477;48.224;11.470;2023-12-20T01:49:45;4.43;;;2.20;;
44750;SDS011;30477;48.224;11.470;2023-12-20T01:52:10;2.27;;;1.90;;
44750;SDS011;30477;48.224;11.470;2023-12-20T01:54:36;2.73;;;1.90;;
44750;SDS011;30477;48.224;11.470;2023-12-20T01:57:04;3.03;;;2.10;;
44750;SDS011;30477;48.224;11.470;2023-12-20T01:59:31;2.70;;;2.40;;
44750;SDS011;30477;48.224;11.470;2023-12-20T02:01:56;2.37;;;2.17;;
44750;SDS011;30477;48.224;11.470;2023-12-20T02:04:22;21.40;;;10.97;;
44750;SDS011;30477;48.224;11.470;2023-12-20T02:06:47;11.30;;;6.77;;
44750;SDS011;30477;48.224;11.470;2023-12-20T02:09:14;5.38;;;3.78;;
44750;SDS011;30477;48.224;11.470;2023-12-20T02:11:40;3.67;;;2.70;;
44750;SDS011;30477;48.224;11.470;2023-12-20T02:14:05;3.00;;;2.30;;
44750;SDS011;30477;48.224;11.470;2023-12-20T02:16:31;2.37;;;2.00;;
44750;SDS011;30477;48.224;11.470;2023-12-20T02:18:56;2.87;;;1.90;;
44750;SDS011;30477;48.224;11.470;2023-12-20T02:21:25;2.20;;;1.80;;
44750;SDS011;30477;48.224;11.470;2023-12-20T02:23:56;2.67;;;1.90;;
44750;SDS011;30477;48.224;11.470;2023-12-20T02:26:22;4.00;;;2.17;;
44750;SDS011;30477;48.224;11.470;2023-12-20T02:28:47;2.77;;;2.30;;
44750;SDS011;30477;48.224;11.470;2023-12-20T02:31:12;4.13;;;2.50;;
44750;SDS011;30477;48.224;11.470;2023-12-20T02:33:38;3.07;;;2.50;;
44750;SDS011;30477;48.224;11.470;2023-12-20T02:36:04;4.25;;;3.70;;
44750;SDS011;30477;48.224;11.470;2023-12-20T02:38:31;6.68;;;5.97;;
44750;SDS011;30477;48.224;11.470;2023-12-20T02:40:57;2.90;;;2.67;;
44750;SDS011;30477;48.224;11.470;2023-12-20T02:43:22;3.40;;;2.40;;
44750;SDS011;30477;48.224;11.470;2023-12-20T02:45:47;2.97;;;2.47;;
44750;SDS011;30477;48.224;11.470;2023-12-20T02:48:12;2.83;;;2.30;;
44750;SDS011;30477;48.224;11.470;2023-12-20T02:50:38;2.47;;;2.17;;
44750;SDS011;30477;48.224;11.470;2023-12-20T02:53:03;1.67;;;1.53;;
44750;SDS011;30477;48.224;11.470;2023-12-20T02:55:29;1.83;;;1.73;;
44750;SDS011;30477;48.224;11.470;2023-12-20T02:57:54;2.10;;;1.70;;
44750;SDS011;30477;48.224;11.470;2023-12-20T03:00:19;2.00;;;1.53;;
44750;SDS011;30477;48.224;11.470;2023-12-20T03:02:44;3.93;;;1.70;;
44750;SDS011;30477;48.224;11.470;2023-12-20T03:05:10;2.00;;;1.80;;
44750;SDS011;30477;48.224;11.470;2023-12-20T03:07:36;2.10;;;1.50;;
44750;SDS011;30477;48.224;11.470;2023-12-20T03:10:02;2.40;;;1.80;;
44750;SDS011;30477;48.224;11.470;2023-12-20T03:12:28;1.95;;;1.75;;
44750;SDS011;30477;48.224;11.470;2023-12-20T03:14:53;1.70;;;1.60;;
44750;SDS011;30477;48.224;11.470;2023-12-20T03:17:19;2.03;;;1.50;;
44750;SDS011;30477;48.224;11.470;2023-12-20T03:22:10;2.90;;;1.63;;
44750;SDS011;30477;48.224;11.470;2023-12-20T03:24:36;1.70;;;1.60;;
44750;SDS011;30477;48.224;11.470;2023-12-20T03:27:01;2.27;;;1.67;;
44750;SDS011;30477;48.224;11.470;2023-12-20T03:29:26;1.63;;;1.40;;
44750;SDS011;30477;48.224;11.470;2023-12-20T03:31:52;1.97;;;1.50;;
44750;SDS011;30477;48.224;11.470;2023-12-20T03:34:17;1.60;;;1.40;;
44750;SDS011;30477;48.224;11.470;2023-12-20T03:36:43;1.70;;;1.40;;
44750;SDS011;30477;48.224;11.470;2023-12-20T03:39:09;1.27;;;1.17;;
44750;SDS011;30477;48.224;11.470;2023-12-20T03:41:35;1.55;;;1.38;;
44750;SDS011;30477;48.224;11.470;2023-12-20T03:44:00;1.30;;;1.17;;
44750;SDS011;30477;48.224;11.470;2023-12-20T03:46:25;1.60;;;1.30;;
44750;SDS011;30477;48.224;11.470;2023-12-20T03:48:51;4.00;;;1.40;;
44750;SDS011;30477;48.224;11.470;2023-12-20T03:51:16;1.70;;;1.40;;
44750;SDS011;30477;48.224;11.470;2023-12-20T03:53:41;2.00;;;1.80;;
44750;SDS011;30477;48.224;11.470;2023-12-20T03:56:07;2.70;;;2.00;;
44750;SDS011;30477;48.224;11.470;2023-12-20T03:58:32;2.33;;;2.10;;
44750;SDS011;30477;48.224;11.470;2023-12-20T04:00:58;2.20;;;2.00;;
44750;SDS011;30477;48.224;11.470;2023-12-20T04:03:23;2.60;;;2.30;;
44750;SDS011;30477;48.224;11.470;2023-12-20T04:05:48;2.67;;;2.10;;
44750;SDS011;30477;48.224;11.470;2023-12-20T04:08:13;2.50;;;2.00;;
44750;SDS011;30477;48.224;11.470;2023-12-20T04:10:39;2.23;;;1.77;;
44750;SDS011;30477;48.224;11.470;2023-12-20T04:13:04;2.27;;;2.00;;
44750;SDS011;30477;48.224;11.470;2023-12-20T04:15:29;3.67;;;2.27;;
44750;SDS011;30477;48.224;11.470;2023-12-20T04:17:55;2.83;;;2.20;;
44750;SDS011;30477;48.224;11.470;2023-12-20T04:20:20;2.13;;;1.90;;
44750;SDS011;30477;48.224;11.470;2023-12-20T04:22:45;2.50;;;2.20;;
44750;SDS011;30477;48.224;11.470;2023-12-20T04:25:11;2.67;;;2.33;;
44750;SDS011;30477;48.224;11.470;2023-12-20T04:27:36;2.10;;;1.90;;
44750;SDS011;30477;48.224;11.470;2023-12-20T04:30:01;2.10;;;1.90;;
44750;SDS011;30477;48.224;11.470;2023-12-20T04:32:27;4.73;;;2.20;;
44750;SDS011;30477;48.224;11.470;2023-12-20T04:34:52;2.87;;;2.40;;
44750;SDS011;30477;48.224;11.470;2023-12-20T04:37:17;2.33;;;2.10;;
44750;SDS011;30477;48.224;11.470;2023-12-20T04:39:43;2.87;;;2.43;;
44750;SDS011;30477;48.224;11.470;2023-12-20T04:42:08;2.40;;;2.20;;
44750;SDS011;30477;48.224;11.470;2023-12-20T04:44:33;2.63;;;2.43;;
44750;SDS011;30477;48.224;11.470;2023-12-20T04:46:59;2.50;;;2.30;;
44750;SDS011;30477;48.224;11.470;2023-12-20T04:49:25;4.97;;;3.05;;
44750;SDS011;30477;48.224;11.470;2023-12-20T04:51:50;3.30;;;2.60;;
44750;SDS011;30477;48.224;11.470;2023-12-20T04:54:15;5.93;;;3.30;;
44750;SDS011;30477;48.224;11.470;2023-12-20T04:56:41;6.27;;;3.37;;
44750;SDS011;30477;48.224;11.470;2023-12-20T04:59:06;7.10;;;4.00;;
44750;SDS011;30477;48.224;11.470;2023-12-20T05:01:31;7.47;;;3.70;;
44750;SDS011;30477;48.224;11.470;2023-12-20T05:03:57;4.20;;;3.40;;
44750;SDS011;30477;48.224;11.470;2023-12-20T05:06:22;5.43;;;3.80;;
44750;SDS011;30477;48.224;11.470;2023-12-20T05:08:47;6.07;;;3.80;;
44750;SDS011;30477;48.224;11.470;2023-12-20T05:11:13;5.43;;;3.50;;
44750;SDS011;30477;48.224;11.470;2023-12-20T05:13:40;4.72;;;3.65;;
44750;SDS011;30477;48.224;11.470;2023-12-20T05:16:05;6.40;;;4.00;;
44750;SDS011;30477;48.224;11.470;2023-12-20T05:18:30;5.80;;;3.30;;
44750;SDS011;30477;48.224;11.470;2023-12-20T05:20:56;6.00;;;4.20;;
44750;SDS011;30477;48.224;11.470;2023-12-20T05:23:21;7.63;;;4.27;;
44750;SDS011;30477;48.224;11.470;2023-12-20T05:25:47;5.53;;;4.10;;
44750;SDS011;30477;48.224;11.470;2023-12-20T05:28:12;6.97;;;4.30;;
44750;SDS011;30477;48.224;11.470;2023-12-20T05:30:37;5.57;;;4.30;;
44750;SDS011;30477;48.224;11.470;2023-12-20T05:33:03;9.00;;;4.80;;
44750;SDS011;30477;48.224;11.470;2023-12-20T05:35:28;6.67;;;5.03;;
44750;SDS011;30477;48.224;11.470;2023-12-20T05:37:53;7.30;;;4.93;;
44750;SDS011;30477;48.224;11.470;2023-12-20T05:40:19;8.10;;;5.10;;
44750;SDS011;30477;48.224;11.470;2023-12-20T05:42:44;7.40;;;4.40;;
44750;SDS011;30477;48.224;11.470;2023-12-20T05:45:09;8.17;;;4.97;;
44750;SDS011;30477;48.224;11.470;2023-12-20T05:47:35;6.45;;;4.95;;
44750;SDS011;30477;48.224;11.470;2023-12-20T05:50:01;8.07;;;5.10;;
44750;SDS011;30477;48.224;11.470;2023-12-20T05:52:26;7.50;;;4.90;;
44750;SDS011;30477;48.224;11.470;2023-12-20T05:54:51;8.83;;;4.97;;
44750;SDS011;30477;48.224;11.470;2023-12-20T05:57:17;7.07;;;5.10;;
44750;SDS011;30477;48.224;11.470;2023-12-20T05:59:42;5.63;;;4.63;;
44750;SDS011;30477;48.224;11.470;2023-12-20T06:02:07;7.73;;;4.80;;
44750;SDS011;30477;48.224;11.470;2023-12-20T06:04:33;5.40;;;4.43;;
44750;SDS011;30477;48.224;11.470;2023-12-20T06:06:58;5.73;;;4.20;;
44750;SDS011;30477;48.224;11.470;2023-12-20T06:09:24;7.60;;;4.28;;
44750;SDS011;30477;48.224;11.470;2023-12-20T06:11:50;8.23;;;4.77;;
44750;SDS011;30477;48.224;11.470;2023-12-20T06:14:16;5.15;;;4.38;;
44750;SDS011;30477;48.224;11.470;2023-12-20T06:16:41;5.43;;;4.17;;
44750;SDS011;30477;48.224;11.470;2023-12-20T06:19:06;6.17;;;4.70;;
44750;SDS011;30477;48.224;11.470;2023-12-20T06:21:32;5.30;;;3.77;;
44750;SDS011;30477;48.224;11.470;2023-12-20T06:23:58;4.63;;;3.87;;
44750;SDS011;30477;48.224;11.470;2023-12-20T06:26:24;5.65;;;4.13;;
44750;SDS011;30477;48.224;11.470;2023-12-20T06:28:49;5.60;;;4.40;;
44750;SDS011;30477;48.224;11.470;2023-12-20T06:31:14;4.87;;;3.93;;
44750;SDS011;30477;48.224;11.470;2023-12-20T06:33:40;5.10;;;3.97;;
44750;SDS011;30477;48.224;11.470;2023-12-20T06:36:11;4.97;;;4.05;;
44750;SDS011;30477;48.224;11.470;2023-12-20T06:38:37;6.93;;;4.15;;
44750;SDS011;30477;48.224;11.470;2023-12-20T06:41:03;6.47;;;4.90;;
44750;SDS011;30477;48.224;11.470;2023-12-20T06:43:29;5.97;;;4.30;;
44750;SDS011;30477;48.224;11.470;2023-12-20T06:45:55;6.72;;;3.95;;
44750;SDS011;30477;48.224;11.470;2023-12-20T06:48:20;5.27;;;4.17;;
44750;SDS011;30477;48.224;11.470;2023-12-20T06:50:46;5.70;;;4.47;;
44750;SDS011;30477;48.224;11.470;2023-12-20T06:53:11;4.70;;;4.20;;
44750;SDS011;30477;48.224;11.470;2023-12-20T06:55:36;5.70;;;4.23;;
44750;SDS011;30477;48.224;11.470;2023-12-20T06:58:03;5.78;;;4.10;;
44750;SDS011;30477;48.224;11.470;2023-12-20T07:00:29;4.40;;;4.00;;
44750;SDS011;30477;48.224;11.470;2023-12-20T07:02:55;5.28;;;3.72;;
44750;SDS011;30477;48.224;11.470;2023-12-20T07:05:20;5.57;;;3.73;;
44750;SDS011;30477;48.224;11.470;2023-12-20T07:07:45;4.50;;;3.87;;
44750;SDS011;30477;48.224;11.470;2023-12-20T07:12:37;6.13;;;3.92;;
44750;SDS011;30477;48.224;11.470;2023-12-20T07:15:03;6.73;;;3.67;;
44750;SDS011;30477;48.224;11.470;2023-12-20T07:17:28;4.10;;;3.42;;
44750;SDS011;30477;48.224;11.470;2023-12-20T07:19:53;5.43;;;3.70;;
44750;SDS011;30477;48.224;11.470;2023-12-20T07:22:19;3.83;;;3.23;;
44750;SDS011;30477;48.224;11.470;2023-12-20T07:24:44;5.53;;;3.90;;
44750;SDS011;30477;48.224;11.470;2023-12-20T07:29:36;5.63;;;3.43;;
44750;SDS011;30477;48.224;11.470;2023-12-20T07:32:01;5.37;;;3.00;;
44750;SDS011;30477;48.224;11.470;2023-12-20T07:34:26;3.13;;;2.70;;
44750;SDS011;30477;48.224;11.470;2023-12-20T07:36:52;3.13;;;2.80;;
44750;SDS011;30477;48.224;11.470;2023-12-20T07:39:17;3.37;;;2.40;;
44750;SDS011;30477;48.224;11.470;2023-12-20T07:44:08;3.60;;;2.37;;
44750;SDS011;30477;48.224;11.470;2023-12-20T07:46:34;2.97;;;2.30;;
44750;SDS011;30477;48.224;11.470;2023-12-20T07:48:59;2.57;;;2.10;;
44750;SDS011;30477;48.224;11.470;2023-12-20T07:51:25;2.33;;;2.00;;
44750;SDS011;30477;48.224;11.470;2023-12-20T07:53:51;2.60;;;1.77;;
44750;SDS011;30477;48.224;11.470;2023-12-20T07:58:42;4.53;;;2.05;;
44750;SDS011;30477;48.224;11.470;2023-12-20T08:01:08;2.50;;;1.90;;
44750;SDS011;30477;48.224;11.470;2023-12-20T08:03:34;3.33;;;2.00;;
44750;SDS011;30477;48.224;11.470;2023-12-20T08:05:59;2.30;;;2.03;;
44750;SDS011;30477;48.224;11.470;2023-12-20T08:08:25;2.10;;;1.90;;
44750;SDS011;30477;48.224;11.470;2023-12-20T08:10:50;4.47;;;2.20;;
44750;SDS011;30477;48.224;11.470;2023-12-20T08:13:16;2.87;;;1.73;;
44750;SDS011;30477;48.224;11.470;2023-12-20T08:15:41;3.43;;;1.70;;
44750;SDS011;30477;48.224;11.470;2023-12-20T08:18:07;1.70;;;1.60;;
44750;SDS011;30477;48.224;11.470;2023-12-20T08:20:32;1.60;;;1.50;;
44750;SDS011;30477;48.224;11.470;2023-12-20T08:22:58;1.97;;;1.73;;
44750;SDS011;30477;48.224;11.470;2023-12-20T08:25:23;1.80;;;1.60;;
44750;SDS011;30477;48.224;11.470;2023-12-20T08:27:48;2.43;;;1.83;;
44750;SDS011;30477;48.224;11.470;2023-12-20T08:30:14;2.93;;;2.00;;
44750;SDS011;30477;48.224;11.470;2023-12-20T08:32:39;2.40;;;1.97;;
44750;SDS011;30477;48.224;11.470;2023-12-20T08:35:04;3.57;;;1.93;;
44750;SDS011;30477;48.224;11.470;2023-12-20T08:37:31;1.70;;;1.43;;
44750;SDS011;30477;48.224;11.470;2023-12-20T08:39:56;1.83;;;1.60;;
44750;SDS011;30477;48.224;11.470;2023-12-20T08:42:21;2.20;;;1.80;;
44750;SDS011;30477;48.224;11.470;2023-12-20T08:44:47;4.10;;;1.97;;
44750;SDS011;30477;48.224;11.470;2023-12-20T08:47:12;4.60;;;3.27;;
44750;SDS011;30477;48.224;11.470;2023-12-20T08:49:40;2.17;;;1.90;;
44750;SDS011;30477;48.224;11.470;2023-12-20T08:52:06;3.97;;;1.90;;
44750;SDS011;30477;48.224;11.470;2023-12-20T08:54:31;2.47;;;2.03;;
44750;SDS011;30477;48.224;11.470;2023-12-20T08:56:56;3.03;;;2.30;;
44750;SDS011;30477;48.224;11.470;2023-12-20T08:59:22;1.90;;;1.70;;
44750;SDS011;30477;48.224;11.470;2023-12-20T09:01:47;2.63;;;2.10;;
44750;SDS011;30477;48.224;11.470;2023-12-20T09:04:13;2.75;;;1.88;;
44750;SDS011;30477;48.224;11.470;2023-12-20T09:06:38;2.93;;;2.30;;
44750;SDS011;30477;48.224;11.470;2023-12-20T09:09:04;2.90;;;1.90;;
44750;SDS011;30477;48.224;11.470;2023-12-20T09:11:29;3.20;;;2.30;;
44750;SDS011;30477;48.224;11.470;2023-12-20T09:13:54;2.33;;;2.13;;
44750;SDS011;30477;48.224;11.470;2023-12-20T09:16:20;4.73;;;2.10;;
44750;SDS011;30477;48.224;11.470;2023-12-20T09:18:45;2.37;;;2.17;;
44750;SDS011;30477;48.224;11.470;2023-12-20T09:21:11;3.77;;;2.00;;
44750;SDS011;30477;48.224;11.470;2023-12-20T09:23:37;3.65;;;2.05;;
44750;SDS011;30477;48.224;11.470;2023-12-20T09:26:02;3.10;;;2.03;;
44750;SDS011;30477;48.224;11.470;2023-12-20T09:28:28;2.58;;;1.90;;
44750;SDS011;30477;48.224;11.470;2023-12-20T09:30:54;2.73;;;2.10;;
44750;SDS011;30477;48.224;11.470;2023-12-20T09:33:19;2.70;;;2.10;;
44750;SDS011;30477;48.224;11.470;2023-12-20T09:35:44;2.93;;;2.23;;
44750;SDS011;30477;48.224;11.470;2023-12-20T09:38:10;2.60;;;2.10;;
44750;SDS011;30477;48.224;11.470;2023-12-20T09:40:36;5.20;;;2.40;;
44750;SDS011;30477;48.224;11.470;2023-12-20T09:43:09;3.92;;;2.72;;
44750;SDS011;30477;48.224;11.470;2023-12-20T09:45:36;3.03;;;2.40;;
44750;SDS011;30477;48.224;11.470;2023-12-20T09:48:03;2.40;;;2.20;;
44750;SDS011;30477;48.224;11.470;2023-12-20T09:50:30;3.60;;;3.22;;
44750;SDS011;30477;48.224;11.470;2023-12-20T09:52:57;2.92;;;2.53;;
44750;SDS011;30477;48.224;11.470;2023-12-20T09:55:24;4.03;;;2.90;;
44750;SDS011;30477;48.224;11.470;2023-12-20T09:57:50;3.00;;;2.70;;
44750;SDS011;30477;48.224;11.470;2023-12-20T10:00:15;3.93;;;2.90;;
44750;SDS011;30477;48.224;11.470;2023-12-20T10:05:13;3.42;;;2.50;;
44750;SDS011;30477;48.224;11.470;2023-12-20T10:07:44;4.32;;;2.70;;
44750;SDS011;30477;48.224;11.470;2023-12-20T10:10:11;3.95;;;2.70;;
44750;SDS011;30477;48.224;11.470;2023-12-20T10:12:38;3.00;;;2.70;;
44750;SDS011;30477;48.224;11.470;2023-12-20T10:15:03;2.53;;;2.20;;
44750;SDS011;30477;48.224;11.470;2023-12-20T10:17:29;2.65;;;2.42;;
44750;SDS011;30477;48.224;11.470;2023-12-20T10:19:55;3.03;;;2.73;;
44750;SDS011;30477;48.224;11.470;2023-12-20T10:22:21;2.83;;;2.60;;
44750;SDS011;30477;48.224;11.470;2023-12-20T10:24:46;3.85;;;2.95;;
44750;SDS011;30477;48.224;11.470;2023-12-20T10:27:12;2.77;;;2.50;;
44750;SDS011;30477;48.224;11.470;2023-12-20T10:29:37;3.40;;;3.03;;
44750;SDS011;30477;48.224;11.470;2023-12-20T10:34:51;3.78;;;3.00;;
44750;SDS011;30477;48.224;11.470;2023-12-20T10:37:18;2.90;;;2.60;;
44750;SDS011;30477;48.224;11.470;2023-12-20T10:39:44;2.57;;;2.03;;
44750;SDS011;30477;48.224;11.470;2023-12-20T10:42:14;3.28;;;2.60;;
44750;SDS011;30477;48.224;11.470;2023-12-20T10:44:40;3.10;;;2.72;;
44750;SDS011;30477;48.224;11.470;2023-12-20T10:47:06;2.97;;;2.60;;
44750;SDS011;30477;48.224;11.470;2023-12-20T10:49:31;4.63;;;3.00;;
44750;SDS011;30477;48.224;11.470;2023-12-20T10:52:01;3.97;;;2.70;;
44750;SDS011;30477;48.224;11.470;2023-12-20T10:54:28;2.78;;;2.22;;
44750;SDS011;30477;48.224;11.470;2023-12-20T10:56:54;4.63;;;3.53;;
44750;SDS011;30477;48.224;11.470;2023-12-20T10:59:22;2.95;;;2.60;;
44750;SDS011;30477;48.224;11.470;2023-12-20T11:01:49;5.28;;;3.90;;
44750;SDS011;30477;48.224;11.470;2023-12-20T11:04:15;4.38;;;3.67;;
44750;SDS011;30477;48.224;11.470;2023-12-20T11:06:58;3.00;;;2.70;;
44750;SDS011;30477;48.224;11.470;2023-12-20T11:09:34;4.60;;;3.00;;
44750;SDS011;30477;48.224;11.470;2023-12-20T11:12:13;3.45;;;2.72;;
44750;SDS011;30477;48.224;11.470;2023-12-20T11:17:11;2.60;;;2.20;;
44750;SDS011;30477;48.224;11.470;2023-12-20T11:22:26;2.95;;;2.30;;
44750;SDS011;30477;48.224;11.470;2023-12-20T11:24:55;2.15;;;1.95;;
44750;SDS011;30477;48.224;11.470;2023-12-20T11:27:23;3.95;;;2.50;;
44750;SDS011;30477;48.224;11.470;2023-12-20T11:29:52;3.27;;;2.30;;
44750;SDS011;30477;48.224;11.470;2023-12-20T11:34:59;2.60;;;2.40;;
44750;SDS011;30477;48.224;11.470;2023-12-20T11:37:29;2.67;;;2.13;;
44750;SDS011;30477;48.224;11.470;2023-12-20T11:40:00;2.45;;;2.20;;
44750;SDS011;30477;48.224;11.470;2023-12-20T11:42:33;2.95;;;2.53;;
44750;SDS011;30477;48.224;11.470;2023-12-20T11:45:02;2.72;;;2.38;;
44750;SDS011;30477;48.224;11.470;2023-12-20T11:47:28;3.67;;;2.75;;
44750;SDS011;30477;48.224;11.470;2023-12-20T11:49:56;2.92;;;2.50;;
44750;SDS011;30477;48.224;11.470;2023-12-20T11:52:21;3.63;;;2.60;;
44750;SDS011;30477;48.224;11.470;2023-12-20T11:54:47;2.73;;;2.40;;
44750;SDS011;30477;48.224;11.470;2023-12-20T11:57:13;3.10;;;2.65;;
44750;SDS011;30477;48.224;11.470;2023-12-20T11:59:38;3.75;;;2.80;;
44750;SDS011;30477;48.224;11.470;2023-12-20T12:02:04;2.73;;;2.33;;
44750;SDS011;30477;48.224;11.470;2023-12-20T12:04:30;2.83;;;2.30;;
44750;SDS011;30477;48.224;11.470;2023-12-20T12:06:56;2.67;;;2.47;;
44750;SDS011;30477;48.224;11.470;2023-12-20T12:09:21;3.77;;;2.57;;
44750;SDS011;30477;48.224;11.470;2023-12-20T12:11:46;4.23;;;3.60;;
44750;SDS011;30477;48.224;11.470;2023-12-20T12:14:12;7.43;;;4.73;;
44750;SDS011;30477;48.224;11.470;2023-12-20T12:16:37;6.27;;;4.50;;
44750;SDS011;30477;48.224;11.470;2023-12-20T12:19:03;6.57;;;5.00;;
44750;SDS011;30477;48.224;11.470;2023-12-20T12:21:29;3.95;;;2.85;;
44750;SDS011;30477;48.224;11.470;2023-12-20T12:23:57;3.47;;;2.60;;
44750;SDS011;30477;48.224;11.470;2023-12-20T12:26:31;3.88;;;3.00;;
44750;SDS011;30477;48.224;11.470;2023-12-20T12:28:56;3.20;;;2.57;;
44750;SDS011;30477;48.224;11.470;2023-12-20T12:31:22;3.50;;;2.93;;
44750;SDS011;30477;48.224;11.470;2023-12-20T12:33:50;2.72;;;2.47;;
44750;SDS011;30477;48.224;11.470;2023-12-20T12:36:16;5.07;;;2.70;;
44750;SDS011;30477;48.224;11.470;2023-12-20T12:38:42;3.30;;;2.80;;
44750;SDS011;30477;48.224;11.470;2023-12-20T12:41:08;3.40;;;2.80;;
44750;SDS011;30477;48.224;11.470;2023-12-20T12:43:35;4.90;;;3.00;;
44750;SDS011;30477;48.224;11.470;2023-12-20T12:46:00;3.90;;;3.00;;
44750;SDS011;30477;48.224;11.470;2023-12-20T12:48:25;4.87;;;2.93;;
44750;SDS011;30477;48.224;11.470;2023-12-20T12:50:52;2.78;;;2.45;;
44750;SDS011;30477;48.224;11.470;2023-12-20T12:53:19;3.08;;;2.38;;
44750;SDS011;30477;48.224;11.470;2023-12-20T12:55:44;2.50;;;2.30;;
44750;SDS011;30477;48.224;11.470;2023-12-20T12:58:11;3.43;;;2.50;;
44750;SDS011;30477;48.224;11.470;2023-12-20T13:00:36;2.97;;;2.50;;
44750;SDS011;30477;48.224;11.470;2023-12-20T13:03:02;5.03;;;2.23;;
44750;SDS011;30477;48.224;11.470;2023-12-20T13:05:27;2.30;;;1.90;;
44750;SDS011;30477;48.224;11.470;2023-12-20T13:07:53;2.50;;;2.08;;
44750;SDS011;30477;48.224;11.470;2023-12-20T13:10:19;2.83;;;2.03;;
44750;SDS011;30477;48.224;11.470;2023-12-20T13:12:44;2.20;;;2.00;;
44750;SDS011;30477;48.224;11.470;2023-12-20T13:15:10;2.55;;;2.20;;
44750;SDS011;30477;48.224;11.470;2023-12-20T13:17:35;3.63;;;2.30;;
44750;SDS011;30477;48.224;11.470;2023-12-20T13:20:01;3.67;;;2.33;;
44750;SDS011;30477;48.224;11.470;2023-12-20T13:22:26;2.27;;;2.00;;
44750;SDS011;30477;48.224;11.470;2023-12-20T13:24:51;2.70;;;2.37;;
44750;SDS011;30477;48.224;11.470;2023-12-20T13:27:17;3.40;;;2.40;;
44750;SDS011;30477;48.224;11.470;2023-12-20T13:29:42;3.57;;;2.90;;
44750;SDS011;30477;48.224;11.470;2023-12-20T13:32:08;4.07;;;3.20;;
44750;SDS011;30477;48.224;11.470;2023-12-20T13:34:33;7.07;;;2.77;;
44750;SDS011;30477;48.224;11.470;2023-12-20T13:36:58;4.83;;;3.00;;
44750;SDS011;30477;48.224;11.470;2023-12-20T13:39:24;4.20;;;2.90;;
44750;SDS011;30477;48.224;11.470;2023-12-20T13:41:49;3.47;;;2.63;;
44750;SDS011;30477;48.224;11.470;2023-12-20T13:44:14;5.13;;;3.00;;
44750;SDS011;30477;48.224;11.470;2023-12-20T13:46:40;6.57;;;2.80;;
44750;SDS011;30477;48.224;11.470;2023-12-20T13:49:06;3.05;;;2.60;;
44750;SDS011;30477;48.224;11.470;2023-12-20T13:51:31;6.70;;;3.17;;
44750;SDS011;30477;48.224;11.470;2023-12-20T13:53:57;5.57;;;2.80;;
44750;SDS011;30477;48.224;11.470;2023-12-20T13:56:22;4.53;;;2.70;;
44750;SDS011;30477;48.224;11.470;2023-12-20T13:58:48;5.53;;;3.10;;
44750;SDS011;30477;48.224;11.470;2023-12-20T14:01:13;4.70;;;2.80;;
44750;SDS011;30477;48.224;11.470;2023-12-20T14:03:39;5.10;;;3.10;;
44750;SDS011;30477;48.224;11.470;2023-12-20T14:06:06;7.07;;;2.90;;
44750;SDS011;30477;48.224;11.470;2023-12-20T14:08:31;5.23;;;2.77;;
44750;SDS011;30477;48.224;11.470;2023-12-20T14:10:56;3.50;;;2.87;;
44750;SDS011;30477;48.224;11.470;2023-12-20T14:13:22;5.90;;;3.20;;
44750;SDS011;30477;48.224;11.470;2023-12-20T14:15:47;3.90;;;2.83;;
44750;SDS011;30477;48.224;11.470;2023-12-20T14:18:14;6.05;;;2.95;;
44750;SDS011;30477;48.224;11.470;2023-12-20T14:20:40;6.93;;;3.00;;
44750;SDS011;30477;48.224;11.470;2023-12-20T14:23:07;5.18;;;2.53;;
44750;SDS011;30477;48.224;11.470;2023-12-20T14:25:34;7.43;;;2.72;;
44750;SDS011;30477;48.224;11.470;2023-12-20T14:28:02;7.13;;;3.35;;
44750;SDS011;30477;48.224;11.470;2023-12-20T14:30:28;4.50;;;2.67;;
44750;SDS011;30477;48.224;11.470;2023-12-20T14:32:53;4.57;;;2.97;;
44750;SDS011;30477;48.224;11.470;2023-12-20T14:35:18;3.93;;;2.50;;
44750;SDS011;30477;48.224;11.470;2023-12-20T14:37:44;6.45;;;2.40;;
44750;SDS011;30477;48.224;11.470;2023-12-20T14:40:10;3.10;;;2.30;;
44750;SDS011;30477;48.224;11.470;2023-12-20T14:42:40;2.65;;;1.90;;
44750;SDS011;30477;48.224;11.470;2023-12-20T14:45:06;4.43;;;2.03;;
44750;SDS011;30477;48.224;11.470;2023-12-20T14:47:32;3.72;;;1.90;;
44750;SDS011;30477;48.224;11.470;2023-12-20T14:49:57;3.07;;;1.90;;
44750;SDS011;30477;48.224;11.470;2023-12-20T14:52:23;4.60;;;2.30;;